Terminal Aerodrome Forecast
Issued by NWS

Home | Current Version | Previous Version | Text Only | Print | Product List | Glossary Off
Versions: 1 2 3 4 5 6 7 8 9 10 11 12 13 14 15 16 17 18 19 20 21 22 23 24 25 26 27 28 29 30 31 32 33 34 35 36 37 38

000
FTUS43 KGRB 291100
TAFRHI
TAF
KRHI 291122Z 2912/3012 15006KT 5SM BR VCTS BKN006 BKN015CB
      TEMPO 2912/2916 2SM SHRA BKN004
     FM291600 17006KT 4SM -SHRA BR BKN015 OVC025
      TEMPO 2916/2920 2SM TSRA BR OVC015CB
     FM292000 19008KT 5SM -SHRA SCT015 OVC028
     FM300000 16003KT 4SM SHRA BR OVC009
     FM300500 VRB03KT 1SM SHRA BR OVC004=

USA.gov is the U.S. government's official web portal to all federal, state and local government web resources and services.